sensor_id;sensor_type;location;lat;lon;timestamp;pressure;altitude;pressure_sealevel;temperature;humidity
27984;BME280;15317;50.360;8.726;2023-04-22T00:03:24;98850.00;;;8.98;100.00
27984;BME280;15317;50.360;8.726;2023-04-22T00:08:28;98842.25;;;9.11;100.00
27984;BME280;15317;50.360;8.726;2023-04-22T00:13:32;98838.88;;;9.17;100.00
27984;BME280;15317;50.360;8.726;2023-04-22T00:18:37;98840.72;;;9.17;100.00
27984;BME280;15317;50.360;8.726;2023-04-22T00:23:40;98832.97;;;9.14;100.00
27984;BME280;15317;50.360;8.726;2023-04-22T00:28:46;98831.25;;;9.13;100.00
27984;BME280;15317;50.360;8.726;2023-04-22T00:33:51;98831.59;;;9.18;100.00
27984;BME280;15317;50.360;8.726;2023-04-22T00:38:55;98836.84;;;9.19;100.00
27984;BME280;15317;50.360;8.726;2023-04-22T00:43:59;98835.66;;;9.22;100.00
27984;BME280;15317;50.360;8.726;2023-04-22T00:49:04;98841.06;;;9.22;100.00
27984;BME280;15317;50.360;8.726;2023-04-22T00:54:08;98846.50;;;9.22;100.00
27984;BME280;15317;50.360;8.726;2023-04-22T00:59:11;98839.41;;;9.21;100.00
27984;BME280;15317;50.360;8.726;2023-04-22T01:04:16;98838.56;;;9.20;100.00
27984;BME280;15317;50.360;8.726;2023-04-22T01:09:19;98836.00;;;9.19;100.00
27984;BME280;15317;50.360;8.726;2023-04-22T01:14:23;98836.16;;;9.17;100.00
27984;BME280;15317;50.360;8.726;2023-04-22T01:19:27;98837.34;;;9.15;100.00
27984;BME280;15317;50.360;8.726;2023-04-22T01:24:33;98841.09;;;9.14;100.00
27984;BME280;15317;50.360;8.726;2023-04-22T01:29:37;98844.97;;;9.11;100.00
27984;BME280;15317;50.360;8.726;2023-04-22T01:34:41;98842.56;;;9.08;100.00
27984;BME280;15317;50.360;8.726;2023-04-22T01:39:46;98834.09;;;9.03;100.00
27984;BME280;15317;50.360;8.726;2023-04-22T01:44:50;98839.69;;;9.01;100.00
27984;BME280;15317;50.360;8.726;2023-04-22T01:49:53;98850.88;;;8.98;100.00
27984;BME280;15317;50.360;8.726;2023-04-22T01:54:58;98843.25;;;8.94;100.00
27984;BME280;15317;50.360;8.726;2023-04-22T02:00:03;98848.13;;;8.90;100.00
27984;BME280;15317;50.360;8.726;2023-04-22T02:05:07;98852.84;;;8.88;100.00
27984;BME280;15317;50.360;8.726;2023-04-22T02:10:12;98853.84;;;8.87;100.00
27984;BME280;15317;50.360;8.726;2023-04-22T02:15:15;98854.03;;;8.86;100.00
27984;BME280;15317;50.360;8.726;2023-04-22T02:20:18;98859.13;;;8.89;100.00
27984;BME280;15317;50.360;8.726;2023-04-22T02:25:23;98856.56;;;8.87;100.00
27984;BME280;15317;50.360;8.726;2023-04-22T02:30:26;98858.25;;;8.88;100.00
27984;BME280;15317;50.360;8.726;2023-04-22T02:35:29;98858.25;;;8.88;100.00
27984;BME280;15317;50.360;8.726;2023-04-22T02:40:33;98841.69;;;8.91;100.00
27984;BME280;15317;50.360;8.726;2023-04-22T02:45:36;98837.31;;;8.98;100.00
27984;BME280;15317;50.360;8.726;2023-04-22T02:50:42;98833.41;;;9.01;100.00
27984;BME280;15317;50.360;8.726;2023-04-22T02:55:46;98844.94;;;9.03;100.00
27984;BME280;15317;50.360;8.726;2023-04-22T03:00:49;98851.38;;;9.02;100.00
27984;BME280;15317;50.360;8.726;2023-04-22T03:05:53;98855.44;;;8.98;100.00
27984;BME280;15317;50.360;8.726;2023-04-22T03:10:57;98849.97;;;8.90;100.00
27984;BME280;15317;50.360;8.726;2023-04-22T03:16:00;98850.47;;;8.77;100.00
27984;BME280;15317;50.360;8.726;2023-04-22T03:21:03;98852.28;;;8.68;100.00
27984;BME280;15317;50.360;8.726;2023-04-22T03:26:08;98844.31;;;8.59;100.00
27984;BME280;15317;50.360;8.726;2023-04-22T03:31:11;98838.50;;;8.54;100.00
27984;BME280;15317;50.360;8.726;2023-04-22T03:36:14;98846.28;;;8.49;100.00
27984;BME280;15317;50.360;8.726;2023-04-22T03:41:19;98844.22;;;8.43;100.00
27984;BME280;15317;50.360;8.726;2023-04-22T03:46:22;98840.47;;;8.36;100.00
27984;BME280;15317;50.360;8.726;2023-04-22T03:51:25;98842.94;;;8.29;100.00
27984;BME280;15317;50.360;8.726;2023-04-22T03:56:31;98843.09;;;8.27;100.00
27984;BME280;15317;50.360;8.726;2023-04-22T04:01:34;98838.53;;;8.28;100.00
27984;BME280;15317;50.360;8.726;2023-04-22T04:06:38;98840.09;;;8.30;100.00
27984;BME280;15317;50.360;8.726;2023-04-22T04:11:43;98844.50;;;8.31;100.00
27984;BME280;15317;50.360;8.726;2023-04-22T04:16:46;98845.53;;;8.30;100.00
27984;BME280;15317;50.360;8.726;2023-04-22T04:21:49;98853.63;;;8.30;100.00
27984;BME280;15317;50.360;8.726;2023-04-22T04:26:53;98845.44;;;8.22;100.00
27984;BME280;15317;50.360;8.726;2023-04-22T04:31:56;98858.59;;;8.17;100.00
27984;BME280;15317;50.360;8.726;2023-04-22T04:37:00;98850.09;;;8.12;100.00
27984;BME280;15317;50.360;8.726;2023-04-22T04:42:04;98847.25;;;8.14;100.00
27984;BME280;15317;50.360;8.726;2023-04-22T04:47:07;98832.41;;;8.18;100.00
27984;BME280;15317;50.360;8.726;2023-04-22T04:52:11;98832.59;;;8.24;100.00
27984;BME280;15317;50.360;8.726;2023-04-22T04:57:15;98835.66;;;8.29;100.00
27984;BME280;15317;50.360;8.726;2023-04-22T05:02:18;98844.19;;;8.35;100.00
27984;BME280;15317;50.360;8.726;2023-04-22T05:07:22;98840.47;;;8.36;100.00
27984;BME280;15317;50.360;8.726;2023-04-22T05:12:26;98837.44;;;8.39;100.00
27984;BME280;15317;50.360;8.726;2023-04-22T05:17:29;98836.09;;;8.43;100.00
27984;BME280;15317;50.360;8.726;2023-04-22T05:22:33;98841.72;;;8.49;100.00
27984;BME280;15317;50.360;8.726;2023-04-22T05:27:39;98830.78;;;8.59;100.00
27984;BME280;15317;50.360;8.726;2023-04-22T05:32:42;98835.19;;;8.68;100.00
27984;BME280;15317;50.360;8.726;2023-04-22T05:37:45;98832.88;;;8.89;100.00
27984;BME280;15317;50.360;8.726;2023-04-22T05:42:49;98831.41;;;9.11;100.00
27984;BME280;15317;50.360;8.726;2023-04-22T05:47:53;98839.06;;;9.32;100.00
27984;BME280;15317;50.360;8.726;2023-04-22T05:52:56;98834.69;;;9.47;100.00
27984;BME280;15317;50.360;8.726;2023-04-22T05:58:00;98846.53;;;9.62;100.00
27984;BME280;15317;50.360;8.726;2023-04-22T06:03:03;98854.66;;;9.86;100.00
27984;BME280;15317;50.360;8.726;2023-04-22T06:08:06;98852.28;;;10.08;100.00
27984;BME280;15317;50.360;8.726;2023-04-22T06:13:11;98854.25;;;10.38;100.00
27984;BME280;15317;50.360;8.726;2023-04-22T06:18:14;98846.34;;;10.67;100.00
27984;BME280;15317;50.360;8.726;2023-04-22T06:23:17;98843.13;;;11.03;100.00
27984;BME280;15317;50.360;8.726;2023-04-22T06:28:21;98851.72;;;11.60;100.00
27984;BME280;15317;50.360;8.726;2023-04-22T06:33:24;98861.47;;;12.15;100.00
27984;BME280;15317;50.360;8.726;2023-04-22T06:38:27;98860.13;;;12.63;95.69
27984;BME280;15317;50.360;8.726;2023-04-22T06:43:32;98855.78;;;12.83;90.20
27984;BME280;15317;50.360;8.726;2023-04-22T06:48:35;98849.94;;;13.16;90.85
27984;BME280;15317;50.360;8.726;2023-04-22T06:53:38;98843.09;;;13.41;89.12
27984;BME280;15317;50.360;8.726;2023-04-22T06:58:42;98858.16;;;13.79;88.24
27984;BME280;15317;50.360;8.726;2023-04-22T07:03:46;98858.44;;;13.84;87.58
27984;BME280;15317;50.360;8.726;2023-04-22T07:08:49;98850.56;;;14.45;83.73
27984;BME280;15317;50.360;8.726;2023-04-22T07:13:53;98854.91;;;16.35;80.90
27984;BME280;15317;50.360;8.726;2023-04-22T07:18:56;98868.03;;;18.74;62.71
27984;BME280;15317;50.360;8.726;2023-04-22T07:24:00;98859.72;;;18.31;63.51
27984;BME280;15317;50.360;8.726;2023-04-22T07:29:04;98849.63;;;18.75;64.47
27984;BME280;15317;50.360;8.726;2023-04-22T07:34:07;98853.28;;;18.19;63.97
27984;BME280;15317;50.360;8.726;2023-04-22T07:39:11;98850.69;;;17.99;57.74
27984;BME280;15317;50.360;8.726;2023-04-22T07:44:15;98846.72;;;17.64;60.72
27984;BME280;15317;50.360;8.726;2023-04-22T07:49:22;98863.22;;;18.20;60.11
27984;BME280;15317;50.360;8.726;2023-04-22T07:54:25;98867.56;;;18.52;58.06
27984;BME280;15317;50.360;8.726;2023-04-22T07:59:29;98860.19;;;18.28;56.66
27984;BME280;15317;50.360;8.726;2023-04-22T08:04:32;98870.28;;;18.34;57.20
27984;BME280;15317;50.360;8.726;2023-04-22T08:09:35;98850.69;;;18.92;56.72
27984;BME280;15317;50.360;8.726;2023-04-22T08:14:40;98857.56;;;19.19;57.85
27984;BME280;15317;50.360;8.726;2023-04-22T08:19:44;98864.69;;;20.17;53.94
27984;BME280;15317;50.360;8.726;2023-04-22T08:24:47;98863.81;;;21.56;48.47
27984;BME280;15317;50.360;8.726;2023-04-22T08:29:51;98867.09;;;21.98;46.33
27984;BME280;15317;50.360;8.726;2023-04-22T08:34:56;98855.25;;;22.48;46.62
27984;BME280;15317;50.360;8.726;2023-04-22T08:40:07;98856.06;;;23.42;42.50
27984;BME280;15317;50.360;8.726;2023-04-22T08:45:12;98855.91;;;24.93;43.86
27984;BME280;15317;50.360;8.726;2023-04-22T08:50:15;98851.28;;;24.66;40.44
27984;BME280;15317;50.360;8.726;2023-04-22T08:55:18;98844.34;;;24.32;40.64
27984;BME280;15317;50.360;8.726;2023-04-22T09:00:23;98844.59;;;23.11;43.62
27984;BME280;15317;50.360;8.726;2023-04-22T09:05:27;98839.47;;;22.48;44.03
27984;BME280;15317;50.360;8.726;2023-04-22T09:10:30;98845.09;;;21.91;46.66
27984;BME280;15317;50.360;8.726;2023-04-22T09:15:36;98828.41;;;21.70;50.20
27984;BME280;15317;50.360;8.726;2023-04-22T09:20:40;98836.50;;;23.27;44.91
27984;BME280;15317;50.360;8.726;2023-04-22T09:25:44;98852.41;;;23.80;44.43
27984;BME280;15317;50.360;8.726;2023-04-22T09:30:49;98837.66;;;23.74;44.66
27984;BME280;15317;50.360;8.726;2023-04-22T09:35:52;98835.97;;;23.30;44.92
27984;BME280;15317;50.360;8.726;2023-04-22T09:40:55;98835.66;;;23.26;44.67
27984;BME280;15317;50.360;8.726;2023-04-22T09:46:00;98839.38;;;22.60;47.00
27984;BME280;15317;50.360;8.726;2023-04-22T09:51:13;98844.00;;;22.04;46.31
27984;BME280;15317;50.360;8.726;2023-04-22T09:56:16;98833.75;;;21.59;49.10
27984;BME280;15317;50.360;8.726;2023-04-22T10:01:21;98831.59;;;21.50;48.29
27984;BME280;15317;50.360;8.726;2023-04-22T10:06:24;98835.72;;;23.09;45.78
27984;BME280;15317;50.360;8.726;2023-04-22T10:11:27;98839.38;;;23.15;44.99
27984;BME280;15317;50.360;8.726;2023-04-22T10:16:33;98838.56;;;22.76;45.98
27984;BME280;15317;50.360;8.726;2023-04-22T10:21:37;98830.84;;;23.00;45.96
27984;BME280;15317;50.360;8.726;2023-04-22T10:26:47;98831.13;;;23.63;45.22
27984;BME280;15317;50.360;8.726;2023-04-22T10:31:53;98828.81;;;23.55;47.80
27984;BME280;15317;50.360;8.726;2023-04-22T10:37:00;98819.72;;;24.14;44.07
27984;BME280;15317;50.360;8.726;2023-04-22T10:42:06;98824.09;;;24.73;44.66
27984;BME280;15317;50.360;8.726;2023-04-22T10:47:23;98819.75;;;24.88;44.36
27984;BME280;15317;50.360;8.726;2023-04-22T10:52:27;98815.78;;;25.26;43.44
27984;BME280;15317;50.360;8.726;2023-04-22T10:57:39;98806.66;;;25.30;44.17
27984;BME280;15317;50.360;8.726;2023-04-22T11:02:44;98802.78;;;25.31;41.29
27984;BME280;15317;50.360;8.726;2023-04-22T11:07:49;98802.50;;;24.12;45.86
27984;BME280;15317;50.360;8.726;2023-04-22T11:12:54;98790.88;;;22.35;48.84
27984;BME280;15317;50.360;8.726;2023-04-22T11:17:59;98780.44;;;21.19;53.10
27984;BME280;15317;50.360;8.726;2023-04-22T11:23:02;98774.06;;;21.92;56.16
27984;BME280;15317;50.360;8.726;2023-04-22T11:28:05;98766.69;;;21.81;55.48
27984;BME280;15317;50.360;8.726;2023-04-22T11:33:13;98758.81;;;21.56;53.06
27984;BME280;15317;50.360;8.726;2023-04-22T11:38:17;98754.75;;;21.63;56.53
27984;BME280;15317;50.360;8.726;2023-04-22T11:43:20;98761.66;;;21.78;55.33
27984;BME280;15317;50.360;8.726;2023-04-22T11:48:24;98750.44;;;21.67;52.60
27984;BME280;15317;50.360;8.726;2023-04-22T11:53:27;98745.94;;;21.33;51.46
27984;BME280;15317;50.360;8.726;2023-04-22T11:58:31;98747.22;;;21.42;51.57
27984;BME280;15317;50.360;8.726;2023-04-22T12:03:36;98739.63;;;21.49;54.70
27984;BME280;15317;50.360;8.726;2023-04-22T12:08:39;98737.69;;;21.66;50.79
27984;BME280;15317;50.360;8.726;2023-04-22T12:13:43;98729.16;;;21.85;50.02
27984;BME280;15317;50.360;8.726;2023-04-22T12:18:50;98726.66;;;21.66;50.66
27984;BME280;15317;50.360;8.726;2023-04-22T12:23:56;98727.75;;;21.99;49.07
27984;BME280;15317;50.360;8.726;2023-04-22T12:29:00;98717.03;;;22.19;52.39
27984;BME280;15317;50.360;8.726;2023-04-22T12:34:04;98713.72;;;22.39;52.59
27984;BME280;15317;50.360;8.726;2023-04-22T12:39:07;98714.19;;;22.53;53.31
27984;BME280;15317;50.360;8.726;2023-04-22T12:44:11;98696.16;;;22.12;48.44
27984;BME280;15317;50.360;8.726;2023-04-22T12:49:16;98684.41;;;22.38;52.49
27984;BME280;15317;50.360;8.726;2023-04-22T12:54:19;98689.03;;;22.54;48.70
27984;BME280;15317;50.360;8.726;2023-04-22T12:59:23;98680.94;;;22.91;45.55
27984;BME280;15317;50.360;8.726;2023-04-22T13:04:27;98691.16;;;23.12;44.20
27984;BME280;15317;50.360;8.726;2023-04-22T13:09:31;98684.91;;;24.18;36.58
27984;BME280;15317;50.360;8.726;2023-04-22T13:14:34;98685.28;;;24.26;35.27
27984;BME280;15317;50.360;8.726;2023-04-22T13:19:39;98691.94;;;23.35;35.81
27984;BME280;15317;50.360;8.726;2023-04-22T13:24:42;98690.72;;;22.99;37.82
27984;BME280;15317;50.360;8.726;2023-04-22T13:29:46;98687.97;;;22.77;38.82
27984;BME280;15317;50.360;8.726;2023-04-22T13:34:50;98672.22;;;22.17;40.17
27984;BME280;15317;50.360;8.726;2023-04-22T13:39:54;98675.22;;;21.65;41.58
27984;BME280;15317;50.360;8.726;2023-04-22T13:44:57;98677.56;;;21.74;40.97
27984;BME280;15317;50.360;8.726;2023-04-22T13:50:02;98665.06;;;21.71;41.31
27984;BME280;15317;50.360;8.726;2023-04-22T13:55:07;98673.53;;;21.64;42.17
27984;BME280;15317;50.360;8.726;2023-04-22T14:00:11;98656.25;;;21.24;42.63
27984;BME280;15317;50.360;8.726;2023-04-22T14:05:17;98663.44;;;20.97;42.92
27984;BME280;15317;50.360;8.726;2023-04-22T14:10:20;98663.94;;;20.65;45.84
27984;BME280;15317;50.360;8.726;2023-04-22T14:15:23;98657.88;;;20.52;45.02
27984;BME280;15317;50.360;8.726;2023-04-22T14:20:27;98664.34;;;20.34;47.41
27984;BME280;15317;50.360;8.726;2023-04-22T14:25:31;98663.06;;;20.01;48.01
27984;BME280;15317;50.360;8.726;2023-04-22T14:30:34;98657.06;;;19.81;47.83
27984;BME280;15317;50.360;8.726;2023-04-22T14:35:39;98658.75;;;19.70;47.60
27984;BME280;15317;50.360;8.726;2023-04-22T14:40:42;98667.13;;;19.64;47.45
27984;BME280;15317;50.360;8.726;2023-04-22T14:45:46;98663.66;;;19.57;46.37
27984;BME280;15317;50.360;8.726;2023-04-22T14:50:51;98666.25;;;19.52;46.37
27984;BME280;15317;50.360;8.726;2023-04-22T14:55:54;98669.00;;;19.52;46.69
27984;BME280;15317;50.360;8.726;2023-04-22T15:00:57;98670.69;;;19.53;44.99
27984;BME280;15317;50.360;8.726;2023-04-22T15:06:03;98665.38;;;19.40;46.23
27984;BME280;15317;50.360;8.726;2023-04-22T15:11:06;98677.22;;;19.28;45.59
27984;BME280;15317;50.360;8.726;2023-04-22T15:16:09;98681.38;;;19.19;46.63
27984;BME280;15317;50.360;8.726;2023-04-22T15:21:14;98693.84;;;18.92;46.74
27984;BME280;15317;50.360;8.726;2023-04-22T15:26:17;98676.09;;;18.58;48.08
27984;BME280;15317;50.360;8.726;2023-04-22T15:31:21;98665.00;;;18.46;50.59
27984;BME280;15317;50.360;8.726;2023-04-22T15:36:25;98674.72;;;18.49;49.29
27984;BME280;15317;50.360;8.726;2023-04-22T15:41:29;98672.03;;;19.20;48.08
27984;BME280;15317;50.360;8.726;2023-04-22T15:46:33;98664.72;;;19.79;48.10
27984;BME280;15317;50.360;8.726;2023-04-22T15:51:37;98663.53;;;19.75;49.11
27984;BME280;15317;50.360;8.726;2023-04-22T15:56:40;98664.44;;;19.46;48.76
27984;BME280;15317;50.360;8.726;2023-04-22T16:01:44;98660.25;;;19.43;50.49
27984;BME280;15317;50.360;8.726;2023-04-22T16:06:50;98662.25;;;19.78;49.24
27984;BME280;15317;50.360;8.726;2023-04-22T16:11:54;98669.75;;;19.59;48.62
27984;BME280;15317;50.360;8.726;2023-04-22T16:16:57;98668.22;;;19.21;47.70
27984;BME280;15317;50.360;8.726;2023-04-22T16:22:02;98673.38;;;18.70;49.66
27984;BME280;15317;50.360;8.726;2023-04-22T16:27:05;98668.53;;;18.35;51.09
27984;BME280;15317;50.360;8.726;2023-04-22T16:32:08;98677.38;;;18.19;52.39
27984;BME280;15317;50.360;8.726;2023-04-22T16:37:13;98666.69;;;18.11;54.11
27984;BME280;15317;50.360;8.726;2023-04-22T16:42:16;98650.72;;;18.01;54.21
27984;BME280;15317;50.360;8.726;2023-04-22T16:47:19;98652.72;;;17.94;55.55
27984;BME280;15317;50.360;8.726;2023-04-22T16:52:24;98639.94;;;17.82;55.81
27984;BME280;15317;50.360;8.726;2023-04-22T16:57:27;98631.44;;;17.65;55.50
27984;BME280;15317;50.360;8.726;2023-04-22T17:02:30;98636.75;;;17.60;57.89
27984;BME280;15317;50.360;8.726;2023-04-22T17:07:35;98635.41;;;17.44;56.83
27984;BME280;15317;50.360;8.726;2023-04-22T17:12:38;98644.91;;;17.42;57.39
27984;BME280;15317;50.360;8.726;2023-04-22T17:17:41;98629.06;;;17.44;57.63
27984;BME280;15317;50.360;8.726;2023-04-22T17:22:46;98637.75;;;17.41;56.49
27984;BME280;15317;50.360;8.726;2023-04-22T17:27:49;98642.69;;;17.32;57.50
27984;BME280;15317;50.360;8.726;2023-04-22T17:32:52;98638.22;;;17.37;56.22
27984;BME280;15317;50.360;8.726;2023-04-22T17:37:57;98642.41;;;17.40;55.93
27984;BME280;15317;50.360;8.726;2023-04-22T17:43:00;98642.84;;;17.37;58.27
27984;BME280;15317;50.360;8.726;2023-04-22T17:48:03;98647.72;;;17.35;55.99
27984;BME280;15317;50.360;8.726;2023-04-22T17:53:08;98649.47;;;17.29;55.97
27984;BME280;15317;50.360;8.726;2023-04-22T17:58:11;98655.16;;;17.28;56.49
27984;BME280;15317;50.360;8.726;2023-04-22T18:03:14;98654.63;;;17.19;58.51
27984;BME280;15317;50.360;8.726;2023-04-22T18:08:19;98668.81;;;17.10;56.29
27984;BME280;15317;50.360;8.726;2023-04-22T18:13:22;98675.19;;;17.04;56.37
27984;BME280;15317;50.360;8.726;2023-04-22T18:18:25;98674.97;;;17.05;58.74
27984;BME280;15317;50.360;8.726;2023-04-22T18:23:30;98677.13;;;16.96;56.90
27984;BME280;15317;50.360;8.726;2023-04-22T18:28:33;98684.09;;;16.92;56.88
27984;BME280;15317;50.360;8.726;2023-04-22T18:33:36;98692.22;;;16.74;60.61
27984;BME280;15317;50.360;8.726;2023-04-22T18:38:40;98685.34;;;16.52;61.87
27984;BME280;15317;50.360;8.726;2023-04-22T18:43:43;98696.16;;;16.40;62.06
27984;BME280;15317;50.360;8.726;2023-04-22T18:48:48;98695.78;;;16.30;64.00
27984;BME280;15317;50.360;8.726;2023-04-22T18:53:52;98701.47;;;16.29;63.91
27984;BME280;15317;50.360;8.726;2023-04-22T18:58:55;98698.31;;;16.18;64.31
27984;BME280;15317;50.360;8.726;2023-04-22T19:03:58;98703.00;;;16.05;67.29
27984;BME280;15317;50.360;8.726;2023-04-22T19:09:04;98706.78;;;15.97;67.28
27984;BME280;15317;50.360;8.726;2023-04-22T19:14:07;98706.41;;;15.87;68.61
27984;BME280;15317;50.360;8.726;2023-04-22T19:19:10;98721.16;;;15.79;69.23
27984;BME280;15317;50.360;8.726;2023-04-22T19:24:15;98715.69;;;15.73;70.11
27984;BME280;15317;50.360;8.726;2023-04-22T19:29:18;98724.53;;;15.62;73.93
27984;BME280;15317;50.360;8.726;2023-04-22T19:34:21;98720.69;;;15.50;73.50
27984;BME280;15317;50.360;8.726;2023-04-22T19:39:26;98711.63;;;15.42;73.30
27984;BME280;15317;50.360;8.726;2023-04-22T19:44:29;98703.41;;;15.29;76.31
27984;BME280;15317;50.360;8.726;2023-04-22T19:49:33;98711.84;;;15.28;76.37
27984;BME280;15317;50.360;8.726;2023-04-22T19:54:38;98717.94;;;15.30;77.51
27984;BME280;15317;50.360;8.726;2023-04-22T19:59:42;98714.78;;;15.26;79.28
27984;BME280;15317;50.360;8.726;2023-04-22T20:04:47;98709.31;;;15.13;80.50
27984;BME280;15317;50.360;8.726;2023-04-22T20:09:53;98718.34;;;15.14;83.65
27984;BME280;15317;50.360;8.726;2023-04-22T20:14:58;98713.50;;;15.09;83.06
27984;BME280;15317;50.360;8.726;2023-04-22T20:20:01;98709.91;;;15.09;88.02
27984;BME280;15317;50.360;8.726;2023-04-22T20:25:12;98712.84;;;14.94;87.30
27984;BME280;15317;50.360;8.726;2023-04-22T20:30:15;98719.75;;;14.90;84.69
27984;BME280;15317;50.360;8.726;2023-04-22T20:35:20;98729.19;;;14.81;87.60
27984;BME280;15317;50.360;8.726;2023-04-22T20:40:26;98732.97;;;14.73;87.57
27984;BME280;15317;50.360;8.726;2023-04-22T20:45:30;98733.56;;;14.69;87.44
27984;BME280;15317;50.360;8.726;2023-04-22T20:50:33;98731.00;;;14.60;87.54
27984;BME280;15317;50.360;8.726;2023-04-22T20:55:38;98731.44;;;14.57;87.43
27984;BME280;15317;50.360;8.726;2023-04-22T21:00:41;98731.81;;;14.54;87.38
27984;BME280;15317;50.360;8.726;2023-04-22T21:05:45;98726.81;;;14.58;85.62
27984;BME280;15317;50.360;8.726;2023-04-22T21:10:51;98731.00;;;14.60;86.72
27984;BME280;15317;50.360;8.726;2023-04-22T21:15:57;98725.09;;;14.50;87.50
27984;BME280;15317;50.360;8.726;2023-04-22T21:21:02;98728.88;;;14.49;88.59
27984;BME280;15317;50.360;8.726;2023-04-22T21:26:08;98734.75;;;14.46;87.94
27984;BME280;15317;50.360;8.726;2023-04-22T21:31:12;98730.06;;;14.40;90.50
27984;BME280;15317;50.360;8.726;2023-04-22T21:36:15;98738.00;;;14.35;89.96
27984;BME280;15317;50.360;8.726;2023-04-22T21:41:20;98745.97;;;14.30;92.18
27984;BME280;15317;50.360;8.726;2023-04-22T21:46:24;98743.56;;;14.14;96.76
27984;BME280;15317;50.360;8.726;2023-04-22T21:51:27;98745.06;;;13.89;100.00
27984;BME280;15317;50.360;8.726;2023-04-22T21:56:31;98745.53;;;13.64;100.00
27984;BME280;15317;50.360;8.726;2023-04-22T22:01:36;98746.41;;;13.43;100.00
27984;BME280;15317;50.360;8.726;2023-04-22T22:06:39;98742.16;;;13.20;100.00
27984;BME280;15317;50.360;8.726;2023-04-22T22:11:43;98744.06;;;13.04;100.00
27984;BME280;15317;50.360;8.726;2023-04-22T22:16:46;98740.44;;;12.97;100.00
27984;BME280;15317;50.360;8.726;2023-04-22T22:21:50;98732.53;;;12.81;100.00
27984;BME280;15317;50.360;8.726;2023-04-22T22:26:55;98748.19;;;12.79;100.00
27984;BME280;15317;50.360;8.726;2023-04-22T22:31:58;98744.56;;;12.72;100.00
27984;BME280;15317;50.360;8.726;2023-04-22T22:37:01;98743.03;;;12.70;100.00
27984;BME280;15317;50.360;8.726;2023-04-22T22:42:06;98741.31;;;12.62;100.00
27984;BME280;15317;50.360;8.726;2023-04-22T22:47:09;98747.78;;;12.61;100.00
27984;BME280;15317;50.360;8.726;2023-04-22T22:52:12;98746.19;;;12.52;100.00
27984;BME280;15317;50.360;8.726;2023-04-22T22:57:17;98752.13;;;12.41;100.00
27984;BME280;15317;50.360;8.726;2023-04-22T23:02:20;98742.81;;;12.35;100.00
27984;BME280;15317;50.360;8.726;2023-04-22T23:07:24;98748.66;;;12.32;100.00
27984;BME280;15317;50.360;8.726;2023-04-22T23:12:28;98752.59;;;12.30;100.00
27984;BME280;15317;50.360;8.726;2023-04-22T23:17:31;98740.78;;;12.22;100.00
27984;BME280;15317;50.360;8.726;2023-04-22T23:22:36;98746.78;;;12.18;100.00
27984;BME280;15317;50.360;8.726;2023-04-22T23:27:42;98740.13;;;12.20;100.00
27984;BME280;15317;50.360;8.726;2023-04-22T23:32:45;98741.25;;;12.11;100.00
27984;BME280;15317;50.360;8.726;2023-04-22T23:37:50;98739.75;;;12.09;100.00
27984;BME280;15317;50.360;8.726;2023-04-22T23:42:55;98738.03;;;12.08;100.00
27984;BME280;15317;50.360;8.726;2023-04-22T23:47:58;98743.13;;;11.96;100.00
27984;BME280;15317;50.360;8.726;2023-04-22T23:53:01;98737.22;;;11.93;100.00
27984;BME280;15317;50.360;8.726;2023-04-22T23:58:06;98731.28;;;11.89;100.00
